KLAA/LAA METAR and TAF weather

Enter ICAO airport designator
Station Type Date Time Source
KLAA METAR 2019/09/21 20:53 UTC NOAA

KLAA 212053Z AUTO 07007KT 10SM CLR 31/07 A2986 RMK AO2 SLP053 T03060067 57025


Station Type Date Time Source
KLAA Decoded METAR 2019/09/21 20:53 UTC NOAA

LAMAR MUNICIPAL AIRPORT, CO, United States (KLAA) 38-04N 102-41W 1119M
Sep 21, 2019 - 04:53 PM EDT / 2019.09.21 2053 UTC
Wind: from the ENE (070 degrees) at 8 MPH (7 KT):0
Visibility: 10 mile(s):0
Sky conditions: clear
Temperature: 87.1 F (30.6 C)
Dew Point: 44.1 F (6.7 C)
Relative Humidity: 22%
Pressure (altimeter): 29.86 in. Hg (1011 hPa)
Pressure tendency: 0.07 inches (2.5 hPa) lower than three hours ago
ob: KLAA 212053Z AUTO 07007KT 10SM CLR 31/07 A2986 RMK AO2 SLP053 T03060067 57025
cycle: 21

Station Type Date Time Source
KLAA TAF UTC NOAA

Error!

Example: see airport list